sensor_id;sensor_type;location;lat;lon;timestamp;P1;durP1;ratioP1;P2;durP2;ratioP2
16957;SDS011;8595;52.542;11.974;2024-03-25T00:01:33;7.50;;;4.63;;
16957;SDS011;8595;52.542;11.974;2024-03-25T00:04:01;6.27;;;4.67;;
16957;SDS011;8595;52.542;11.974;2024-03-25T00:06:27;13.67;;;5.13;;
16957;SDS011;8595;52.542;11.974;2024-03-25T00:08:58;7.97;;;4.43;;
16957;SDS011;8595;52.542;11.974;2024-03-25T00:11:24;6.17;;;4.83;;
16957;SDS011;8595;52.542;11.974;2024-03-25T00:13:50;7.13;;;4.57;;
16957;SDS011;8595;52.542;11.974;2024-03-25T00:16:16;6.40;;;4.57;;
16957;SDS011;8595;52.542;11.974;2024-03-25T00:18:42;5.50;;;4.50;;
16957;SDS011;8595;52.542;11.974;2024-03-25T00:21:09;9.27;;;4.77;;
16957;SDS011;8595;52.542;11.974;2024-03-25T00:23:36;5.93;;;4.70;;
16957;SDS011;8595;52.542;11.974;2024-03-25T00:26:02;5.23;;;3.83;;
16957;SDS011;8595;52.542;11.974;2024-03-25T00:28:28;8.50;;;4.93;;
16957;SDS011;8595;52.542;11.974;2024-03-25T00:30:54;6.50;;;3.70;;
16957;SDS011;8595;52.542;11.974;2024-03-25T00:33:20;8.77;;;4.30;;
16957;SDS011;8595;52.542;11.974;2024-03-25T00:35:47;10.00;;;3.97;;
16957;SDS011;8595;52.542;11.974;2024-03-25T00:38:16;7.97;;;3.23;;
16957;SDS011;8595;52.542;11.974;2024-03-25T00:40:41;4.53;;;2.83;;
16957;SDS011;8595;52.542;11.974;2024-03-25T00:43:08;6.33;;;3.33;;
16957;SDS011;8595;52.542;11.974;2024-03-25T00:45:34;6.23;;;3.10;;
16957;SDS011;8595;52.542;11.974;2024-03-25T00:48:00;4.83;;;3.10;;
16957;SDS011;8595;52.542;11.974;2024-03-25T00:50:26;3.53;;;2.83;;
16957;SDS011;8595;52.542;11.974;2024-03-25T00:52:53;4.20;;;2.80;;
16957;SDS011;8595;52.542;11.974;2024-03-25T00:55:20;3.60;;;3.03;;
16957;SDS011;8595;52.542;11.974;2024-03-25T00:57:46;5.53;;;3.00;;
16957;SDS011;8595;52.542;11.974;2024-03-25T01:00:13;5.87;;;3.77;;
16957;SDS011;8595;52.542;11.974;2024-03-25T01:02:40;6.47;;;3.70;;
16957;SDS011;8595;52.542;11.974;2024-03-25T01:05:07;6.60;;;3.80;;
16957;SDS011;8595;52.542;11.974;2024-03-25T01:07:33;6.07;;;3.50;;
16957;SDS011;8595;52.542;11.974;2024-03-25T01:09:59;6.90;;;3.67;;
16957;SDS011;8595;52.542;11.974;2024-03-25T01:12:27;6.77;;;3.87;;
16957;SDS011;8595;52.542;11.974;2024-03-25T01:14:53;5.30;;;3.60;;
16957;SDS011;8595;52.542;11.974;2024-03-25T01:17:20;7.10;;;3.80;;
16957;SDS011;8595;52.542;11.974;2024-03-25T01:19:45;5.90;;;3.97;;
16957;SDS011;8595;52.542;11.974;2024-03-25T01:22:12;5.57;;;3.40;;
16957;SDS011;8595;52.542;11.974;2024-03-25T01:24:38;7.83;;;3.77;;
16957;SDS011;8595;52.542;11.974;2024-03-25T01:27:05;9.07;;;3.30;;
16957;SDS011;8595;52.542;11.974;2024-03-25T01:29:32;6.13;;;3.07;;
16957;SDS011;8595;52.542;11.974;2024-03-25T01:31:59;6.47;;;3.40;;
16957;SDS011;8595;52.542;11.974;2024-03-25T01:34:25;5.67;;;3.30;;
16957;SDS011;8595;52.542;11.974;2024-03-25T01:36:51;5.57;;;3.43;;
16957;SDS011;8595;52.542;11.974;2024-03-25T01:39:17;7.73;;;3.20;;
16957;SDS011;8595;52.542;11.974;2024-03-25T01:41:44;9.07;;;3.00;;
16957;SDS011;8595;52.542;11.974;2024-03-25T01:44:10;8.53;;;3.07;;
16957;SDS011;8595;52.542;11.974;2024-03-25T01:46:38;6.50;;;3.70;;
16957;SDS011;8595;52.542;11.974;2024-03-25T01:49:05;9.03;;;3.27;;
16957;SDS011;8595;52.542;11.974;2024-03-25T01:51:32;7.87;;;3.17;;
16957;SDS011;8595;52.542;11.974;2024-03-25T01:54:00;8.57;;;3.07;;
16957;SDS011;8595;52.542;11.974;2024-03-25T01:56:27;8.60;;;3.37;;
16957;SDS011;8595;52.542;11.974;2024-03-25T01:58:56;4.90;;;3.10;;
16957;SDS011;8595;52.542;11.974;2024-03-25T02:01:23;13.13;;;3.70;;
16957;SDS011;8595;52.542;11.974;2024-03-25T02:03:50;7.70;;;3.50;;
16957;SDS011;8595;52.542;11.974;2024-03-25T02:06:18;6.37;;;3.63;;
16957;SDS011;8595;52.542;11.974;2024-03-25T02:08:45;10.47;;;3.10;;
16957;SDS011;8595;52.542;11.974;2024-03-25T02:11:13;8.27;;;3.67;;
16957;SDS011;8595;52.542;11.974;2024-03-25T02:13:40;6.63;;;3.63;;
16957;SDS011;8595;52.542;11.974;2024-03-25T02:16:07;6.97;;;3.33;;
16957;SDS011;8595;52.542;11.974;2024-03-25T02:18:32;7.03;;;3.47;;
16957;SDS011;8595;52.542;11.974;2024-03-25T02:21:01;8.57;;;3.83;;
16957;SDS011;8595;52.542;11.974;2024-03-25T02:23:27;9.33;;;3.73;;
16957;SDS011;8595;52.542;11.974;2024-03-25T02:25:55;11.17;;;3.97;;
16957;SDS011;8595;52.542;11.974;2024-03-25T02:28:20;7.83;;;3.40;;
16957;SDS011;8595;52.542;11.974;2024-03-25T02:30:47;6.77;;;3.20;;
16957;SDS011;8595;52.542;11.974;2024-03-25T02:33:13;8.07;;;3.30;;
16957;SDS011;8595;52.542;11.974;2024-03-25T02:35:40;10.97;;;3.50;;
16957;SDS011;8595;52.542;11.974;2024-03-25T02:38:07;5.90;;;3.80;;
16957;SDS011;8595;52.542;11.974;2024-03-25T02:40:34;8.07;;;3.67;;
16957;SDS011;8595;52.542;11.974;2024-03-25T02:43:02;7.50;;;3.60;;
16957;SDS011;8595;52.542;11.974;2024-03-25T02:45:29;12.87;;;3.57;;
16957;SDS011;8595;52.542;11.974;2024-03-25T02:47:55;8.20;;;4.03;;
16957;SDS011;8595;52.542;11.974;2024-03-25T02:50:22;14.00;;;3.60;;
16957;SDS011;8595;52.542;11.974;2024-03-25T02:52:48;9.27;;;4.13;;
16957;SDS011;8595;52.542;11.974;2024-03-25T02:55:14;6.50;;;3.93;;
16957;SDS011;8595;52.542;11.974;2024-03-25T02:57:40;9.53;;;4.13;;
16957;SDS011;8595;52.542;11.974;2024-03-25T03:00:09;7.20;;;4.13;;
16957;SDS011;8595;52.542;11.974;2024-03-25T03:02:35;8.77;;;4.03;;
16957;SDS011;8595;52.542;11.974;2024-03-25T03:05:02;10.83;;;4.33;;
16957;SDS011;8595;52.542;11.974;2024-03-25T03:07:29;8.50;;;3.70;;
16957;SDS011;8595;52.542;11.974;2024-03-25T03:09:56;7.47;;;4.00;;
16957;SDS011;8595;52.542;11.974;2024-03-25T03:12:21;12.63;;;4.63;;
16957;SDS011;8595;52.542;11.974;2024-03-25T03:14:48;7.20;;;3.40;;
16957;SDS011;8595;52.542;11.974;2024-03-25T03:17:15;7.17;;;4.73;;
16957;SDS011;8595;52.542;11.974;2024-03-25T03:19:42;5.50;;;3.23;;
16957;SDS011;8595;52.542;11.974;2024-03-25T03:22:07;5.20;;;3.33;;
16957;SDS011;8595;52.542;11.974;2024-03-25T03:24:34;5.63;;;3.60;;
16957;SDS011;8595;52.542;11.974;2024-03-25T03:27:00;12.63;;;3.40;;
16957;SDS011;8595;52.542;11.974;2024-03-25T03:29:27;8.73;;;3.93;;
16957;SDS011;8595;52.542;11.974;2024-03-25T03:31:52;6.20;;;3.77;;
16957;SDS011;8595;52.542;11.974;2024-03-25T03:34:21;8.97;;;4.03;;
16957;SDS011;8595;52.542;11.974;2024-03-25T03:36:47;13.13;;;4.10;;
16957;SDS011;8595;52.542;11.974;2024-03-25T03:39:15;9.70;;;3.87;;
16957;SDS011;8595;52.542;11.974;2024-03-25T03:41:40;13.27;;;4.07;;
16957;SDS011;8595;52.542;11.974;2024-03-25T03:44:07;7.30;;;3.90;;
16957;SDS011;8595;52.542;11.974;2024-03-25T03:46:34;7.47;;;3.53;;
16957;SDS011;8595;52.542;11.974;2024-03-25T03:49:01;6.93;;;3.07;;
16957;SDS011;8595;52.542;11.974;2024-03-25T03:51:28;11.77;;;3.90;;
16957;SDS011;8595;52.542;11.974;2024-03-25T03:53:54;9.53;;;3.70;;
16957;SDS011;8595;52.542;11.974;2024-03-25T03:56:21;8.07;;;3.73;;
16957;SDS011;8595;52.542;11.974;2024-03-25T03:58:48;4.70;;;3.20;;
16957;SDS011;8595;52.542;11.974;2024-03-25T04:01:14;9.77;;;3.77;;
16957;SDS011;8595;52.542;11.974;2024-03-25T04:03:41;8.13;;;3.80;;
16957;SDS011;8595;52.542;11.974;2024-03-25T04:06:07;5.70;;;3.57;;
16957;SDS011;8595;52.542;11.974;2024-03-25T04:08:37;6.50;;;3.80;;
16957;SDS011;8595;52.542;11.974;2024-03-25T04:11:03;5.73;;;3.87;;
16957;SDS011;8595;52.542;11.974;2024-03-25T04:13:31;8.50;;;4.10;;
16957;SDS011;8595;52.542;11.974;2024-03-25T04:15:59;9.80;;;3.40;;
16957;SDS011;8595;52.542;11.974;2024-03-25T04:18:27;9.43;;;4.33;;
16957;SDS011;8595;52.542;11.974;2024-03-25T04:20:53;6.73;;;3.70;;
16957;SDS011;8595;52.542;11.974;2024-03-25T04:23:20;6.97;;;4.00;;
16957;SDS011;8595;52.542;11.974;2024-03-25T04:25:47;8.47;;;3.60;;
16957;SDS011;8595;52.542;11.974;2024-03-25T04:28:13;7.97;;;3.80;;
16957;SDS011;8595;52.542;11.974;2024-03-25T04:30:39;7.93;;;3.30;;
16957;SDS011;8595;52.542;11.974;2024-03-25T04:33:06;5.73;;;3.37;;
16957;SDS011;8595;52.542;11.974;2024-03-25T04:35:32;9.07;;;4.30;;
16957;SDS011;8595;52.542;11.974;2024-03-25T04:37:58;11.03;;;3.73;;
16957;SDS011;8595;52.542;11.974;2024-03-25T04:40:24;5.10;;;3.87;;
16957;SDS011;8595;52.542;11.974;2024-03-25T04:42:51;7.83;;;3.67;;
16957;SDS011;8595;52.542;11.974;2024-03-25T04:45:17;5.60;;;3.57;;
16957;SDS011;8595;52.542;11.974;2024-03-25T04:47:43;7.13;;;3.40;;
16957;SDS011;8595;52.542;11.974;2024-03-25T04:50:09;7.43;;;3.60;;
16957;SDS011;8595;52.542;11.974;2024-03-25T04:52:35;6.77;;;3.70;;
16957;SDS011;8595;52.542;11.974;2024-03-25T04:55:00;4.47;;;3.60;;
16957;SDS011;8595;52.542;11.974;2024-03-25T04:57:26;5.87;;;3.33;;
16957;SDS011;8595;52.542;11.974;2024-03-25T04:59:53;5.50;;;3.87;;
16957;SDS011;8595;52.542;11.974;2024-03-25T05:02:19;9.93;;;3.70;;
16957;SDS011;8595;52.542;11.974;2024-03-25T05:04:45;8.47;;;3.63;;
16957;SDS011;8595;52.542;11.974;2024-03-25T05:07:11;7.00;;;3.80;;
16957;SDS011;8595;52.542;11.974;2024-03-25T05:09:37;8.17;;;4.47;;
16957;SDS011;8595;52.542;11.974;2024-03-25T05:12:03;5.37;;;3.80;;
16957;SDS011;8595;52.542;11.974;2024-03-25T05:14:29;8.40;;;4.00;;
16957;SDS011;8595;52.542;11.974;2024-03-25T05:16:56;9.53;;;4.93;;
16957;SDS011;8595;52.542;11.974;2024-03-25T05:19:21;6.57;;;4.53;;
16957;SDS011;8595;52.542;11.974;2024-03-25T05:21:47;7.70;;;5.27;;
16957;SDS011;8595;52.542;11.974;2024-03-25T05:24:13;12.17;;;4.80;;
16957;SDS011;8595;52.542;11.974;2024-03-25T05:26:38;7.10;;;4.53;;
16957;SDS011;8595;52.542;11.974;2024-03-25T05:29:04;10.07;;;5.33;;
16957;SDS011;8595;52.542;11.974;2024-03-25T05:31:30;7.33;;;4.43;;
16957;SDS011;8595;52.542;11.974;2024-03-25T05:33:57;8.07;;;4.43;;
16957;SDS011;8595;52.542;11.974;2024-03-25T05:36:23;7.40;;;4.23;;
16957;SDS011;8595;52.542;11.974;2024-03-25T05:38:49;8.17;;;4.47;;
16957;SDS011;8595;52.542;11.974;2024-03-25T05:41:14;6.13;;;4.07;;
16957;SDS011;8595;52.542;11.974;2024-03-25T05:43:40;8.53;;;4.47;;
16957;SDS011;8595;52.542;11.974;2024-03-25T05:46:06;7.53;;;4.30;;
16957;SDS011;8595;52.542;11.974;2024-03-25T05:48:32;9.70;;;4.50;;
16957;SDS011;8595;52.542;11.974;2024-03-25T05:51:00;7.90;;;4.63;;
16957;SDS011;8595;52.542;11.974;2024-03-25T05:53:26;7.43;;;4.33;;
16957;SDS011;8595;52.542;11.974;2024-03-25T05:55:52;6.70;;;3.90;;
16957;SDS011;8595;52.542;11.974;2024-03-25T05:58:18;7.17;;;4.70;;
16957;SDS011;8595;52.542;11.974;2024-03-25T06:00:46;8.37;;;4.47;;
16957;SDS011;8595;52.542;11.974;2024-03-25T06:03:12;5.43;;;3.77;;
16957;SDS011;8595;52.542;11.974;2024-03-25T06:05:38;6.97;;;3.77;;
16957;SDS011;8595;52.542;11.974;2024-03-25T06:08:06;8.27;;;4.33;;
16957;SDS011;8595;52.542;11.974;2024-03-25T06:10:35;6.83;;;4.20;;
16957;SDS011;8595;52.542;11.974;2024-03-25T06:13:01;5.77;;;3.17;;
16957;SDS011;8595;52.542;11.974;2024-03-25T06:15:27;6.53;;;3.50;;
16957;SDS011;8595;52.542;11.974;2024-03-25T06:17:52;5.60;;;3.50;;
16957;SDS011;8595;52.542;11.974;2024-03-25T06:20:18;7.63;;;3.60;;
16957;SDS011;8595;52.542;11.974;2024-03-25T06:22:44;5.17;;;4.23;;
16957;SDS011;8595;52.542;11.974;2024-03-25T06:25:11;6.73;;;3.57;;
16957;SDS011;8595;52.542;11.974;2024-03-25T06:27:37;7.60;;;3.23;;
16957;SDS011;8595;52.542;11.974;2024-03-25T06:30:03;7.77;;;3.63;;
16957;SDS011;8595;52.542;11.974;2024-03-25T06:32:44;6.27;;;3.27;;
16957;SDS011;8595;52.542;11.974;2024-03-25T06:35:29;4.27;;;3.37;;
16957;SDS011;8595;52.542;11.974;2024-03-25T06:37:55;6.43;;;3.90;;
16957;SDS011;8595;52.542;11.974;2024-03-25T06:40:22;11.13;;;4.00;;
16957;SDS011;8595;52.542;11.974;2024-03-25T06:42:47;9.93;;;4.17;;
16957;SDS011;8595;52.542;11.974;2024-03-25T06:45:13;5.47;;;3.47;;
16957;SDS011;8595;52.542;11.974;2024-03-25T06:47:39;7.57;;;3.63;;
16957;SDS011;8595;52.542;11.974;2024-03-25T06:50:05;7.93;;;5.70;;
16957;SDS011;8595;52.542;11.974;2024-03-25T06:52:32;8.60;;;4.33;;
16957;SDS011;8595;52.542;11.974;2024-03-25T06:54:58;5.80;;;4.50;;
16957;SDS011;8595;52.542;11.974;2024-03-25T06:57:25;7.10;;;4.37;;
16957;SDS011;8595;52.542;11.974;2024-03-25T06:59:50;8.97;;;4.77;;
16957;SDS011;8595;52.542;11.974;2024-03-25T07:02:16;11.43;;;4.33;;
16957;SDS011;8595;52.542;11.974;2024-03-25T07:04:42;5.00;;;3.67;;
16957;SDS011;8595;52.542;11.974;2024-03-25T07:07:08;8.50;;;4.30;;
16957;SDS011;8595;52.542;11.974;2024-03-25T07:09:33;6.53;;;4.30;;
16957;SDS011;8595;52.542;11.974;2024-03-25T07:11:59;6.10;;;3.87;;
16957;SDS011;8595;52.542;11.974;2024-03-25T07:14:26;7.87;;;4.50;;
16957;SDS011;8595;52.542;11.974;2024-03-25T07:16:52;5.23;;;4.10;;
16957;SDS011;8595;52.542;11.974;2024-03-25T07:19:18;7.87;;;3.93;;
16957;SDS011;8595;52.542;11.974;2024-03-25T07:21:44;7.97;;;4.37;;
16957;SDS011;8595;52.542;11.974;2024-03-25T07:24:10;7.20;;;4.53;;
16957;SDS011;8595;52.542;11.974;2024-03-25T07:26:35;9.23;;;4.70;;
16957;SDS011;8595;52.542;11.974;2024-03-25T07:29:01;8.23;;;4.63;;
16957;SDS011;8595;52.542;11.974;2024-03-25T07:31:28;10.70;;;4.40;;
16957;SDS011;8595;52.542;11.974;2024-03-25T07:33:54;11.97;;;4.03;;
16957;SDS011;8595;52.542;11.974;2024-03-25T07:36:20;5.90;;;3.93;;
16957;SDS011;8595;52.542;11.974;2024-03-25T07:38:46;7.97;;;3.87;;
16957;SDS011;8595;52.542;11.974;2024-03-25T07:41:11;9.87;;;4.27;;
16957;SDS011;8595;52.542;11.974;2024-03-25T07:43:38;10.20;;;4.10;;
16957;SDS011;8595;52.542;11.974;2024-03-25T07:46:04;8.33;;;4.57;;
16957;SDS011;8595;52.542;11.974;2024-03-25T07:48:31;9.03;;;4.47;;
16957;SDS011;8595;52.542;11.974;2024-03-25T07:50:57;15.40;;;4.90;;
16957;SDS011;8595;52.542;11.974;2024-03-25T07:53:22;7.87;;;4.80;;
16957;SDS011;8595;52.542;11.974;2024-03-25T07:55:48;8.43;;;5.27;;
16957;SDS011;8595;52.542;11.974;2024-03-25T07:58:15;8.40;;;4.50;;
16957;SDS011;8595;52.542;11.974;2024-03-25T08:00:41;6.80;;;5.17;;
16957;SDS011;8595;52.542;11.974;2024-03-25T08:03:06;11.30;;;6.90;;
16957;SDS011;8595;52.542;11.974;2024-03-25T08:05:33;10.77;;;6.13;;
16957;SDS011;8595;52.542;11.974;2024-03-25T08:07:59;14.10;;;7.03;;
16957;SDS011;8595;52.542;11.974;2024-03-25T08:10:25;5.30;;;4.80;;
16957;SDS011;8595;52.542;11.974;2024-03-25T08:12:51;8.80;;;5.33;;
16957;SDS011;8595;52.542;11.974;2024-03-25T08:15:17;6.97;;;5.13;;
16957;SDS011;8595;52.542;11.974;2024-03-25T08:17:43;9.80;;;5.30;;
16957;SDS011;8595;52.542;11.974;2024-03-25T08:20:09;9.45;;;4.90;;
16957;SDS011;8595;52.542;11.974;2024-03-25T08:22:36;9.93;;;5.07;;
16957;SDS011;8595;52.542;11.974;2024-03-25T08:25:02;5.90;;;4.10;;
16957;SDS011;8595;52.542;11.974;2024-03-25T08:27:28;6.60;;;4.93;;
16957;SDS011;8595;52.542;11.974;2024-03-25T08:29:54;9.27;;;5.87;;
16957;SDS011;8595;52.542;11.974;2024-03-25T08:32:20;9.23;;;5.10;;
16957;SDS011;8595;52.542;11.974;2024-03-25T08:34:46;6.25;;;4.35;;
16957;SDS011;8595;52.542;11.974;2024-03-25T08:37:12;9.70;;;5.03;;
16957;SDS011;8595;52.542;11.974;2024-03-25T08:39:39;6.33;;;4.67;;
16957;SDS011;8595;52.542;11.974;2024-03-25T08:42:05;6.27;;;5.00;;
16957;SDS011;8595;52.542;11.974;2024-03-25T08:44:30;10.18;;;4.57;;
16957;SDS011;8595;52.542;11.974;2024-03-25T08:46:56;5.90;;;4.20;;
16957;SDS011;8595;52.542;11.974;2024-03-25T08:49:22;9.10;;;4.67;;
16957;SDS011;8595;52.542;11.974;2024-03-25T08:51:48;11.88;;;4.07;;
16957;SDS011;8595;52.542;11.974;2024-03-25T08:54:13;5.00;;;3.77;;
16957;SDS011;8595;52.542;11.974;2024-03-25T08:56:40;7.40;;;4.72;;
16957;SDS011;8595;52.542;11.974;2024-03-25T08:59:06;7.97;;;3.78;;
16957;SDS011;8595;52.542;11.974;2024-03-25T09:01:32;7.22;;;4.03;;
16957;SDS011;8595;52.542;11.974;2024-03-25T09:03:58;7.60;;;4.60;;
16957;SDS011;8595;52.542;11.974;2024-03-25T09:06:23;7.93;;;4.78;;
16957;SDS011;8595;52.542;11.974;2024-03-25T09:08:49;6.35;;;4.07;;
16957;SDS011;8595;52.542;11.974;2024-03-25T09:11:33;6.78;;;4.05;;
16957;SDS011;8595;52.542;11.974;2024-03-25T09:14:01;4.63;;;3.22;;
16957;SDS011;8595;52.542;11.974;2024-03-25T09:16:27;7.35;;;3.75;;
16957;SDS011;8595;52.542;11.974;2024-03-25T09:18:52;5.60;;;3.70;;
16957;SDS011;8595;52.542;11.974;2024-03-25T09:21:18;4.03;;;2.70;;
16957;SDS011;8595;52.542;11.974;2024-03-25T09:23:44;5.00;;;3.20;;
16957;SDS011;8595;52.542;11.974;2024-03-25T09:26:10;4.47;;;3.95;;
16957;SDS011;8595;52.542;11.974;2024-03-25T09:28:35;4.88;;;3.40;;
16957;SDS011;8595;52.542;11.974;2024-03-25T09:31:03;3.92;;;3.03;;
16957;SDS011;8595;52.542;11.974;2024-03-25T09:33:28;7.25;;;3.75;;
16957;SDS011;8595;52.542;11.974;2024-03-25T09:35:54;7.50;;;3.22;;
16957;SDS011;8595;52.542;11.974;2024-03-25T09:38:20;6.63;;;3.20;;
16957;SDS011;8595;52.542;11.974;2024-03-25T09:40:46;5.83;;;3.63;;
16957;SDS011;8595;52.542;11.974;2024-03-25T09:43:12;8.60;;;3.65;;
16957;SDS011;8595;52.542;11.974;2024-03-25T09:45:43;5.93;;;3.13;;
16957;SDS011;8595;52.542;11.974;2024-03-25T09:48:13;7.28;;;4.25;;
16957;SDS011;8595;52.542;11.974;2024-03-25T09:50:41;6.28;;;4.20;;
16957;SDS011;8595;52.542;11.974;2024-03-25T09:53:08;5.90;;;3.45;;
16957;SDS011;8595;52.542;11.974;2024-03-25T09:55:33;11.80;;;4.15;;
16957;SDS011;8595;52.542;11.974;2024-03-25T09:57:59;5.65;;;3.30;;
16957;SDS011;8595;52.542;11.974;2024-03-25T10:00:26;4.50;;;3.22;;
16957;SDS011;8595;52.542;11.974;2024-03-25T10:02:51;7.55;;;3.65;;
16957;SDS011;8595;52.542;11.974;2024-03-25T10:05:19;9.60;;;4.15;;
16957;SDS011;8595;52.542;11.974;2024-03-25T10:07:45;5.60;;;3.08;;
16957;SDS011;8595;52.542;11.974;2024-03-25T10:10:11;4.47;;;3.13;;
16957;SDS011;8595;52.542;11.974;2024-03-25T10:12:36;4.40;;;2.95;;
16957;SDS011;8595;52.542;11.974;2024-03-25T10:15:02;5.45;;;2.70;;
16957;SDS011;8595;52.542;11.974;2024-03-25T10:17:30;5.35;;;2.78;;
16957;SDS011;8595;52.542;11.974;2024-03-25T10:19:55;3.60;;;2.20;;
16957;SDS011;8595;52.542;11.974;2024-03-25T10:22:23;5.35;;;2.47;;
16957;SDS011;8595;52.542;11.974;2024-03-25T10:24:49;3.33;;;2.05;;
16957;SDS011;8595;52.542;11.974;2024-03-25T10:27:18;3.15;;;2.03;;
16957;SDS011;8595;52.542;11.974;2024-03-25T10:29:45;2.17;;;1.75;;
16957;SDS011;8595;52.542;11.974;2024-03-25T10:32:12;2.45;;;1.90;;
16957;SDS011;8595;52.542;11.974;2024-03-25T10:34:38;4.57;;;1.80;;
16957;SDS011;8595;52.542;11.974;2024-03-25T10:37:04;3.28;;;1.95;;
16957;SDS011;8595;52.542;11.974;2024-03-25T10:39:36;5.28;;;2.47;;
16957;SDS011;8595;52.542;11.974;2024-03-25T10:42:05;8.18;;;2.50;;
16957;SDS011;8595;52.542;11.974;2024-03-25T10:44:31;3.53;;;2.20;;
16957;SDS011;8595;52.542;11.974;2024-03-25T10:46:58;3.70;;;2.08;;
16957;SDS011;8595;52.542;11.974;2024-03-25T10:49:27;2.58;;;2.08;;
16957;SDS011;8595;52.542;11.974;2024-03-25T10:52:00;7.53;;;2.70;;
16957;SDS011;8595;52.542;11.974;2024-03-25T10:54:26;3.50;;;2.25;;
16957;SDS011;8595;52.542;11.974;2024-03-25T10:56:57;3.78;;;1.90;;
16957;SDS011;8595;52.542;11.974;2024-03-25T10:59:24;4.85;;;2.20;;
16957;SDS011;8595;52.542;11.974;2024-03-25T11:01:51;4.97;;;2.40;;
16957;SDS011;8595;52.542;11.974;2024-03-25T11:04:17;6.90;;;2.40;;
16957;SDS011;8595;52.542;11.974;2024-03-25T11:06:43;5.95;;;2.65;;
16957;SDS011;8595;52.542;11.974;2024-03-25T11:09:09;5.97;;;3.75;;
16957;SDS011;8595;52.542;11.974;2024-03-25T11:11:35;3.97;;;3.60;;
16957;SDS011;8595;52.542;11.974;2024-03-25T11:14:03;4.47;;;3.25;;
16957;SDS011;8595;52.542;11.974;2024-03-25T11:16:30;4.90;;;4.15;;
16957;SDS011;8595;52.542;11.974;2024-03-25T11:19:00;5.43;;;3.80;;
16957;SDS011;8595;52.542;11.974;2024-03-25T11:21:25;5.20;;;3.63;;
16957;SDS011;8595;52.542;11.974;2024-03-25T11:23:51;9.65;;;3.90;;
16957;SDS011;8595;52.542;11.974;2024-03-25T11:26:18;4.57;;;3.25;;
16957;SDS011;8595;52.542;11.974;2024-03-25T11:28:44;4.95;;;2.50;;
16957;SDS011;8595;52.542;11.974;2024-03-25T11:31:11;5.80;;;2.17;;
16957;SDS011;8595;52.542;11.974;2024-03-25T11:33:37;3.38;;;2.28;;
16957;SDS011;8595;52.542;11.974;2024-03-25T11:36:04;3.85;;;2.30;;
16957;SDS011;8595;52.542;11.974;2024-03-25T11:38:30;16.42;;;9.20;;
16957;SDS011;8595;52.542;11.974;2024-03-25T11:40:56;4.55;;;3.20;;
16957;SDS011;8595;52.542;11.974;2024-03-25T11:43:23;4.00;;;3.22;;
16957;SDS011;8595;52.542;11.974;2024-03-25T11:45:49;3.60;;;2.90;;
16957;SDS011;8595;52.542;11.974;2024-03-25T11:48:16;5.63;;;4.70;;
16957;SDS011;8595;52.542;11.974;2024-03-25T11:50:44;4.82;;;3.70;;
16957;SDS011;8595;52.542;11.974;2024-03-25T11:53:10;6.07;;;3.97;;
16957;SDS011;8595;52.542;11.974;2024-03-25T11:55:38;5.65;;;3.47;;
16957;SDS011;8595;52.542;11.974;2024-03-25T11:58:04;6.28;;;3.10;;
16957;SDS011;8595;52.542;11.974;2024-03-25T12:00:30;4.65;;;3.15;;
16957;SDS011;8595;52.542;11.974;2024-03-25T12:02:55;3.00;;;2.53;;
16957;SDS011;8595;52.542;11.974;2024-03-25T12:05:22;3.33;;;2.50;;
16957;SDS011;8595;52.542;11.974;2024-03-25T12:07:48;3.25;;;2.50;;
16957;SDS011;8595;52.542;11.974;2024-03-25T12:10:15;3.63;;;2.28;;
16957;SDS011;8595;52.542;11.974;2024-03-25T12:12:59;5.63;;;2.92;;
16957;SDS011;8595;52.542;11.974;2024-03-25T12:15:25;4.55;;;2.90;;
16957;SDS011;8595;52.542;11.974;2024-03-25T12:17:51;6.90;;;2.92;;
16957;SDS011;8595;52.542;11.974;2024-03-25T12:20:17;4.70;;;3.42;;
16957;SDS011;8595;52.542;11.974;2024-03-25T12:22:46;9.55;;;3.90;;
16957;SDS011;8595;52.542;11.974;2024-03-25T12:25:13;6.85;;;4.28;;
16957;SDS011;8595;52.542;11.974;2024-03-25T12:27:39;8.25;;;3.65;;
16957;SDS011;8595;52.542;11.974;2024-03-25T12:30:06;6.82;;;4.03;;
16957;SDS011;8595;52.542;11.974;2024-03-25T12:32:37;6.05;;;3.40;;
16957;SDS011;8595;52.542;11.974;2024-03-25T12:35:06;5.82;;;3.63;;
16957;SDS011;8595;52.542;11.974;2024-03-25T12:37:34;7.18;;;3.90;;
16957;SDS011;8595;52.542;11.974;2024-03-25T12:40:03;5.82;;;3.30;;
16957;SDS011;8595;52.542;11.974;2024-03-25T12:42:30;10.00;;;3.28;;
16957;SDS011;8595;52.542;11.974;2024-03-25T12:44:56;8.07;;;3.70;;
16957;SDS011;8595;52.542;11.974;2024-03-25T12:47:22;12.65;;;5.50;;
16957;SDS011;8595;52.542;11.974;2024-03-25T12:49:47;6.20;;;3.45;;
16957;SDS011;8595;52.542;11.974;2024-03-25T12:52:14;7.65;;;3.50;;
16957;SDS011;8595;52.542;11.974;2024-03-25T12:54:40;8.32;;;3.63;;
16957;SDS011;8595;52.542;11.974;2024-03-25T12:57:07;6.35;;;3.28;;
16957;SDS011;8595;52.542;11.974;2024-03-25T12:59:33;6.10;;;3.17;;
16957;SDS011;8595;52.542;11.974;2024-03-25T13:01:59;6.30;;;2.95;;
16957;SDS011;8595;52.542;11.974;2024-03-25T13:04:25;6.68;;;2.85;;
16957;SDS011;8595;52.542;11.974;2024-03-25T13:06:51;5.78;;;2.45;;
16957;SDS011;8595;52.542;11.974;2024-03-25T13:09:17;4.05;;;2.03;;
16957;SDS011;8595;52.542;11.974;2024-03-25T13:11:43;7.68;;;2.38;;
16957;SDS011;8595;52.542;11.974;2024-03-25T13:14:11;3.97;;;2.40;;
16957;SDS011;8595;52.542;11.974;2024-03-25T13:16:37;5.28;;;2.70;;
16957;SDS011;8595;52.542;11.974;2024-03-25T13:19:02;8.05;;;2.85;;
16957;SDS011;8595;52.542;11.974;2024-03-25T13:21:28;5.85;;;2.67;;
16957;SDS011;8595;52.542;11.974;2024-03-25T13:23:54;7.18;;;2.55;;
16957;SDS011;8595;52.542;11.974;2024-03-25T13:26:20;5.10;;;2.40;;
16957;SDS011;8595;52.542;11.974;2024-03-25T13:28:46;3.67;;;2.05;;
16957;SDS011;8595;52.542;11.974;2024-03-25T13:31:13;5.07;;;2.83;;
16957;SDS011;8595;52.542;11.974;2024-03-25T13:33:39;5.13;;;2.33;;
16957;SDS011;8595;52.542;11.974;2024-03-25T13:36:06;5.70;;;3.08;;
16957;SDS011;8595;52.542;11.974;2024-03-25T13:38:32;3.97;;;2.95;;
16957;SDS011;8595;52.542;11.974;2024-03-25T13:40:58;6.78;;;6.03;;
16957;SDS011;8595;52.542;11.974;2024-03-25T13:43:24;9.10;;;3.30;;
16957;SDS011;8595;52.542;11.974;2024-03-25T13:45:50;6.78;;;3.13;;
16957;SDS011;8595;52.542;11.974;2024-03-25T13:48:17;4.97;;;2.65;;
16957;SDS011;8595;52.542;11.974;2024-03-25T13:50:43;5.50;;;2.95;;
16957;SDS011;8595;52.542;11.974;2024-03-25T13:53:09;4.85;;;2.47;;
16957;SDS011;8595;52.542;11.974;2024-03-25T13:55:35;4.53;;;2.47;;
16957;SDS011;8595;52.542;11.974;2024-03-25T13:58:01;6.55;;;2.20;;
16957;SDS011;8595;52.542;11.974;2024-03-25T14:00:26;4.00;;;2.40;;
16957;SDS011;8595;52.542;11.974;2024-03-25T14:02:53;7.43;;;2.97;;
16957;SDS011;8595;52.542;11.974;2024-03-25T14:05:20;6.07;;;2.75;;
16957;SDS011;8595;52.542;11.974;2024-03-25T14:07:46;8.35;;;3.90;;
16957;SDS011;8595;52.542;11.974;2024-03-25T14:10:13;5.18;;;3.00;;
16957;SDS011;8595;52.542;11.974;2024-03-25T14:12:38;6.43;;;2.92;;
16957;SDS011;8595;52.542;11.974;2024-03-25T14:15:05;6.07;;;2.88;;
16957;SDS011;8595;52.542;11.974;2024-03-25T14:17:31;6.72;;;3.88;;
16957;SDS011;8595;52.542;11.974;2024-03-25T14:19:57;5.47;;;3.70;;
16957;SDS011;8595;52.542;11.974;2024-03-25T14:22:24;11.15;;;5.57;;
16957;SDS011;8595;52.542;11.974;2024-03-25T14:24:49;7.40;;;3.13;;
16957;SDS011;8595;52.542;11.974;2024-03-25T14:27:15;5.60;;;3.55;;
16957;SDS011;8595;52.542;11.974;2024-03-25T14:29:41;6.05;;;2.92;;
16957;SDS011;8595;52.542;11.974;2024-03-25T14:32:07;10.30;;;3.92;;
16957;SDS011;8595;52.542;11.974;2024-03-25T14:34:33;11.95;;;4.20;;
16957;SDS011;8595;52.542;11.974;2024-03-25T14:36:59;8.95;;;4.70;;
16957;SDS011;8595;52.542;11.974;2024-03-25T14:39:26;9.68;;;4.32;;
16957;SDS011;8595;52.542;11.974;2024-03-25T14:41:52;4.93;;;2.53;;